createdAt,value
2022-10-20T06:12:42.993Z,7.10
2022-10-20T06:15:13.914Z,7.40
2022-10-20T06:17:44.421Z,6.50
2022-10-20T06:20:15.087Z,6.30
2022-10-20T06:22:45.657Z,8.50
2022-10-20T06:25:16.471Z,5.80
2022-10-20T06:27:46.964Z,5.50
2022-10-20T06:30:18.241Z,5.80
2022-10-20T06:32:48.700Z,6.00
2022-10-20T06:35:19.302Z,5.50
2022-10-20T06:37:49.780Z,6.50
2022-10-20T06:40:20.421Z,6.00
2022-10-20T06:42:50.970Z,6.80
2022-10-20T06:45:21.589Z,6.80
2022-10-20T06:47:52.142Z,6.50
2022-10-20T06:50:22.777Z,6.10
2022-10-20T06:52:53.216Z,6.20
2022-10-20T06:55:23.474Z,6.30
2022-10-20T06:57:54.941Z,6.50
2022-10-20T07:00:25.409Z,6.40
2022-10-20T07:02:56.714Z,6.40
2022-10-20T07:05:27.271Z,7.40
2022-10-20T07:07:58.255Z,7.40
2022-10-20T07:10:28.498Z,8.00
2022-10-20T07:12:59.817Z,8.80
2022-10-20T07:15:30.092Z,6.80
2022-10-20T07:18:01.115Z,8.00
2022-10-20T07:20:31.547Z,7.00
2022-10-20T07:23:02.582Z,7.00
2022-10-20T07:25:33.018Z,6.80
2022-10-20T07:28:04.086Z,8.90
2022-10-20T07:30:38.781Z,9.10
2022-10-20T07:33:09.825Z,7.10
2022-10-20T07:35:40.149Z,7.10
2022-10-20T07:38:11.200Z,7.00
2022-10-20T07:40:41.631Z,7.00
2022-10-20T07:43:12.790Z,7.60
2022-10-20T07:45:43.068Z,8.40
2022-10-20T07:48:14.234Z,8.60
2022-10-20T07:50:44.570Z,8.90
2022-10-20T07:53:16.212Z,6.60
2022-10-20T07:55:46.480Z,7.50
2022-10-20T07:58:17.552Z,7.20
2022-10-20T08:00:47.812Z,7.50
2022-10-20T08:03:19.043Z,9.00
2022-10-20T08:05:49.352Z,7.20
2022-10-20T08:08:20.511Z,6.50
2022-10-20T08:10:50.814Z,7.30
2022-10-20T08:13:22.586Z,6.80
2022-10-20T08:15:53.100Z,7.00
2022-10-20T08:18:32.956Z,6.40
2022-10-20T08:21:11.149Z,7.50
2022-10-20T08:23:42.494Z,6.60
2022-10-20T08:26:13.060Z,4.90
2022-10-20T08:28:43.912Z,5.50
2022-10-20T08:31:14.322Z,5.20
2022-10-20T08:33:50.078Z,6.60
2022-10-20T08:36:22.479Z,6.60
2022-10-20T08:38:55.103Z,4.40
2022-10-20T08:41:34.560Z,4.50
2022-10-20T08:44:06.889Z,4.70
2022-10-20T08:46:38.318Z,3.60
2022-10-20T08:49:12.786Z,3.90
2022-10-20T08:51:43.433Z,4.90
2022-10-20T08:54:15.319Z,3.60
2022-10-20T08:56:45.903Z,3.80
2022-10-20T08:59:30.285Z,4.40
2022-10-20T09:02:00.867Z,3.00
2022-10-20T09:04:35.885Z,3.50
2022-10-20T09:07:11.264Z,5.20
2022-10-20T09:09:42.092Z,2.90
2022-10-20T09:12:15.113Z,3.10
2022-10-20T09:14:46.570Z,4.30
2022-10-20T09:17:18.390Z,3.70
2022-10-20T09:19:51.218Z,3.30
2022-10-20T09:22:23.222Z,3.40
2022-10-20T09:24:56.821Z,3.60
2022-10-20T09:27:32.510Z,3.60
2022-10-20T09:30:15.787Z,3.80
2022-10-20T09:32:47.743Z,4.00
2022-10-20T09:35:30.709Z,3.30
2022-10-20T09:38:03.501Z,3.60
2022-10-20T09:40:34.435Z,2.40
2022-10-20T09:43:11.786Z,3.40
2022-10-20T09:45:51.261Z,2.70
2022-10-20T09:48:23.546Z,2.70
2022-10-20T09:50:56.442Z,2.30
2022-10-20T09:53:29.055Z,2.40
2022-10-20T09:56:00.195Z,2.20
2022-10-20T09:58:31.571Z,2.70
2022-10-20T10:01:04.610Z,2.80
2022-10-20T10:03:41.208Z,3.20
2022-10-20T10:06:23.625Z,1.70
2022-10-20T10:08:54.294Z,2.10
2022-10-20T10:11:28.385Z,3.10
2022-10-20T10:13:58.897Z,3.30
2022-10-20T10:16:30.643Z,2.80
2022-10-20T10:19:02.479Z,3.60
2022-10-20T10:21:44.514Z,3.10
2022-10-20T10:24:29.367Z,3.20
2022-10-20T10:27:01.152Z,3.20
2022-10-20T10:29:36.252Z,2.10
2022-10-20T10:32:15.584Z,2.40
2022-10-20T10:34:52.263Z,2.40
2022-10-20T10:37:23.409Z,2.30
2022-10-20T10:39:53.662Z,2.10
2022-10-20T10:42:31.660Z,2.10
2022-10-20T10:45:08.331Z,2.00
2022-10-20T10:47:48.146Z,2.50
2022-10-20T10:50:25.222Z,2.30
2022-10-20T10:53:00.713Z,2.10
2022-10-20T10:55:48.269Z,1.90
2022-10-20T10:58:24.330Z,1.80
2022-10-20T11:00:58.349Z,1.90
2022-10-20T11:03:44.185Z,1.80
2022-10-20T11:06:20.527Z,1.40
2022-10-20T11:08:56.503Z,1.90
2022-10-20T11:11:33.778Z,1.70
2022-10-20T11:14:12.209Z,2.60
2022-10-20T11:16:44.958Z,2.20
2022-10-20T11:19:30.376Z,1.50
2022-10-20T11:22:09.435Z,1.60
2022-10-20T11:24:49.223Z,1.40
2022-10-20T11:27:20.409Z,1.80
2022-10-20T11:29:52.967Z,2.20
2022-10-20T11:32:26.708Z,2.00
2022-10-20T11:35:01.330Z,2.20
2022-10-20T11:37:32.600Z,1.70
2022-10-20T11:40:07.832Z,1.40
2022-10-20T11:42:42.963Z,1.90
2022-10-20T11:45:29.885Z,1.70
2022-10-20T11:48:02.950Z,1.60
2022-10-20T11:50:34.833Z,1.90
2022-10-20T11:53:12.020Z,1.80
2022-10-20T11:55:56.067Z,1.50
2022-10-20T11:58:40.531Z,1.60
2022-10-20T12:01:24.767Z,2.20
2022-10-20T12:04:06.332Z,2.00
2022-10-20T12:06:42.877Z,1.60
2022-10-20T12:09:23.333Z,1.80
2022-10-20T12:11:56.736Z,2.20
2022-10-20T12:14:29.561Z,2.60
2022-10-20T12:19:31.763Z,1.70
2022-10-20T12:22:04.016Z,1.90
2022-10-20T12:24:36.450Z,2.00
2022-10-20T12:27:27.959Z,1.90
2022-10-20T12:30:02.845Z,2.50
2022-10-20T12:32:47.091Z,1.90
2022-10-20T12:35:43.111Z,1.60
2022-10-20T12:38:17.854Z,1.90
2022-10-20T12:40:50.326Z,1.60
2022-10-20T12:43:28.624Z,1.40
2022-10-20T12:46:00.629Z,1.50
2022-10-20T12:48:34.930Z,1.70
2022-10-20T12:51:09.028Z,1.30
2022-10-20T13:06:56.859Z,1.60
2022-10-20T13:09:27.461Z,1.80
2022-10-20T13:12:06.607Z,1.80
2022-10-20T13:14:56.768Z,1.40
2022-10-20T13:17:38.481Z,1.60
2022-10-20T13:20:20.055Z,1.40
2022-10-20T13:22:51.394Z,1.40
2022-10-20T13:25:40.077Z,1.70
2022-10-20T13:28:18.585Z,1.50
2022-10-20T13:31:01.195Z,1.90
2022-10-20T13:33:58.865Z,1.60
2022-10-20T13:36:30.512Z,1.50
2022-10-20T13:39:03.576Z,1.40
2022-10-20T13:41:35.353Z,1.50
2022-10-20T13:44:11.767Z,1.80
2022-10-20T13:46:48.494Z,1.60
2022-10-20T13:49:26.600Z,1.40
2022-10-20T13:52:01.064Z,1.40
2022-10-20T13:54:33.823Z,1.90
2022-10-20T13:57:04.770Z,1.60
2022-10-20T13:59:35.369Z,1.60
2022-10-20T14:02:25.791Z,1.60
2022-10-20T14:05:11.912Z,1.50
2022-10-20T14:07:43.613Z,1.70
2022-10-20T14:10:23.997Z,1.50
2022-10-20T14:12:55.218Z,2.00
2022-10-20T14:15:28.533Z,1.30
2022-10-20T14:18:01.066Z,1.50
2022-10-20T14:20:32.673Z,1.60
2022-10-20T14:23:03.578Z,1.70
2022-10-20T14:25:34.930Z,1.70
2022-10-20T14:28:07.596Z,1.60
2022-10-20T14:30:41.108Z,2.70
2022-10-20T14:33:16.131Z,2.00
2022-10-20T14:35:50.424Z,1.50
2022-10-20T14:38:23.054Z,1.60
2022-10-20T14:40:54.296Z,1.90
2022-10-20T14:43:28.990Z,2.00
2022-10-20T14:46:00.649Z,1.90
2022-10-20T14:48:34.556Z,2.60
2022-10-20T14:51:25.454Z,2.00
2022-10-20T14:54:13.823Z,2.10
2022-10-20T14:56:45.958Z,2.20
2022-10-20T14:59:17.119Z,1.60
2022-10-20T15:01:57.718Z,1.60
2022-10-20T15:04:30.995Z,1.80
2022-10-20T15:07:05.132Z,2.10
2022-10-20T15:09:40.343Z,1.60
2022-10-20T15:12:15.270Z,1.50
2022-10-20T15:14:47.292Z,2.00
2022-10-20T15:17:34.621Z,1.90
2022-10-20T15:20:22.476Z,1.60
2022-10-20T15:22:55.330Z,1.90
2022-10-20T15:27:56.727Z,2.20
2022-10-20T15:30:27.665Z,2.20
2022-10-20T15:32:58.330Z,3.80
2022-10-20T15:35:31.178Z,4.80
2022-10-20T15:38:01.848Z,5.00
2022-10-20T15:40:32.530Z,5.00
2022-10-20T15:43:03.304Z,6.20
2022-10-20T15:45:36.425Z,8.00
2022-10-20T15:48:07.219Z,8.20
2022-10-20T15:50:38.035Z,8.50
2022-10-20T15:53:09.076Z,8.80
2022-10-20T15:55:42.127Z,10.20
2022-10-20T15:58:13.012Z,12.70
2022-10-20T16:00:43.923Z,13.40
2022-10-20T16:03:17.566Z,12.70
2022-10-20T16:05:48.658Z,11.70
2022-10-20T16:08:19.796Z,10.80
2022-10-20T16:10:50.151Z,11.70
2022-10-20T16:13:21.342Z,11.50
2022-10-20T16:15:51.707Z,11.40
2022-10-20T16:18:22.311Z,11.10
2022-10-20T16:20:53.081Z,10.00
2022-10-20T16:23:23.825Z,9.30
2022-10-20T16:25:54.356Z,9.30
2022-10-20T16:28:24.766Z,9.00
2022-10-20T16:31:03.731Z,8.60
2022-10-20T16:33:34.323Z,7.70
2022-10-20T16:41:12.595Z,7.00
2022-10-20T16:43:44.674Z,6.70
2022-10-20T16:48:47.895Z,6.10
2022-10-20T16:51:18.766Z,6.20
2022-10-20T16:53:50.023Z,6.20
2022-10-20T16:56:21.120Z,6.40
2022-10-20T16:58:52.095Z,6.40
2022-10-20T17:01:23.901Z,6.10
2022-10-20T17:03:55.008Z,6.10
2022-10-20T17:06:26.346Z,6.20
2022-10-20T17:08:59.012Z,6.50
2022-10-20T17:11:31.240Z,6.50
2022-10-20T17:14:02.291Z,6.10
2022-10-20T17:16:34.529Z,5.80
2022-10-20T17:19:05.096Z,6.40
2022-10-20T17:21:35.665Z,5.20
2022-10-20T17:24:10.422Z,5.30
2022-10-20T17:26:41.261Z,5.90
2022-10-20T17:29:12.023Z,6.30
2022-10-20T17:31:42.728Z,5.50
2022-10-20T17:34:13.535Z,5.30
2022-10-20T17:36:44.277Z,5.80
2022-10-20T17:39:17.862Z,5.60
2022-10-20T17:41:48.726Z,6.00
2022-10-20T17:44:19.334Z,5.00
2022-10-20T17:46:49.904Z,5.60
2022-10-20T17:49:20.786Z,5.50
2022-10-20T17:51:51.294Z,5.80
2022-10-20T17:54:22.100Z,5.90
2022-10-20T17:56:52.790Z,5.90
2022-10-20T17:59:23.180Z,5.70
2022-10-20T18:01:53.804Z,6.60
2022-10-20T18:04:24.588Z,6.50
2022-10-20T18:06:54.997Z,6.10
2022-10-20T18:09:25.849Z,6.10
2022-10-20T18:11:56.463Z,6.90
2022-10-20T18:14:26.957Z,7.30
2022-10-20T18:16:57.603Z,6.90
2022-10-20T18:19:28.659Z,6.50
2022-10-20T18:21:59.609Z,8.20
2022-10-20T18:24:30.893Z,7.20
2022-10-20T18:27:01.580Z,7.10
2022-10-20T18:29:33.336Z,7.40
2022-10-20T18:32:04.379Z,7.80
2022-10-20T18:34:35.124Z,7.60
2022-10-20T18:37:05.742Z,8.40
2022-10-20T18:39:36.593Z,8.20
2022-10-20T18:42:07.034Z,8.10
2022-10-20T18:44:37.672Z,8.80
2022-10-20T18:47:08.584Z,9.50
2022-10-20T18:49:39.409Z,10.00
2022-10-20T18:52:10.067Z,8.50
2022-10-20T18:54:40.772Z,8.20
2022-10-20T18:57:11.430Z,8.70
2022-10-20T18:59:42.201Z,9.10
2022-10-20T19:02:12.826Z,9.20
2022-10-20T19:04:43.653Z,9.50
2022-10-20T19:07:14.191Z,10.80
2022-10-20T19:09:45.175Z,9.70
2022-10-20T19:15:14.324Z,10.50
2022-10-20T19:17:44.813Z,10.20
2022-10-20T19:20:20.204Z,10.50
2022-10-20T19:22:51.021Z,9.70
2022-10-20T19:25:21.512Z,10.80
2022-10-20T19:27:52.162Z,11.30
2022-10-20T19:32:59.668Z,10.70
2022-10-20T19:35:35.398Z,11.60
2022-10-20T19:38:11.124Z,10.80
2022-10-20T19:40:41.931Z,10.00
2022-10-20T19:43:12.438Z,12.70
2022-10-20T19:45:47.680Z,11.80
2022-10-20T19:48:26.176Z,12.50
2022-10-20T19:51:06.258Z,13.00
2022-10-20T19:53:37.686Z,12.60
2022-10-20T19:56:09.047Z,12.90
2022-10-20T19:58:42.735Z,14.50
2022-10-20T20:01:16.960Z,15.90
2022-10-20T20:03:47.689Z,15.70
2022-10-20T20:06:19.430Z,15.00
2022-10-20T20:08:53.219Z,15.30
2022-10-20T20:11:26.468Z,14.50
2022-10-20T20:13:58.290Z,14.20
2022-10-20T20:16:29.652Z,15.30
2022-10-20T20:19:00.695Z,14.60
2022-10-20T20:21:32.019Z,14.80
2022-10-20T20:24:03.465Z,13.30
2022-10-20T20:26:35.195Z,14.30
2022-10-20T20:29:06.481Z,14.00
2022-10-20T20:31:36.955Z,14.80
2022-10-20T20:34:07.741Z,14.60
2022-10-20T20:36:39.612Z,15.90
2022-10-20T20:39:10.543Z,15.70
2022-10-20T20:41:41.158Z,17.60
2022-10-20T20:44:11.921Z,16.70
2022-10-20T20:46:47.336Z,21.60
2022-10-20T20:49:22.086Z,21.20
2022-10-20T20:51:52.612Z,20.30
2022-10-20T20:54:23.044Z,17.30
2022-10-20T20:56:53.538Z,18.60
2022-10-20T20:59:24.233Z,16.10
2022-10-20T21:01:54.648Z,17.60
2022-10-20T21:04:28.310Z,16.50
2022-10-20T21:07:02.408Z,18.30
2022-10-20T21:09:34.243Z,15.40
2022-10-20T21:12:05.249Z,15.70
2022-10-20T21:14:35.812Z,17.30
2022-10-20T21:17:06.269Z,16.60
2022-10-20T21:19:37.113Z,17.10
2022-10-20T21:22:07.820Z,17.10
2022-10-20T21:24:38.811Z,17.00
2022-10-20T21:27:09.363Z,16.40
2022-10-20T21:29:44.157Z,17.90
2022-10-20T21:32:18.492Z,17.40
2022-10-20T21:34:49.010Z,16.90
2022-10-20T21:37:19.668Z,17.80
2022-10-20T21:39:50.364Z,15.90
2022-10-20T21:42:21.082Z,17.60
2022-10-20T21:44:52.150Z,15.60
2022-10-20T21:47:22.709Z,17.00
2022-10-20T21:49:53.154Z,18.30
2022-10-20T21:52:23.690Z,16.80
2022-10-20T21:54:54.189Z,17.50
2022-10-20T21:57:24.846Z,17.10
2022-10-20T21:59:55.654Z,18.80
2022-10-20T22:02:26.426Z,19.00
2022-10-20T22:04:57.161Z,16.70
2022-10-20T22:07:28.513Z,17.30
2022-10-20T22:09:59.666Z,16.60
2022-10-20T22:12:30.532Z,19.20
2022-10-20T22:15:01.120Z,18.40
2022-10-20T22:17:31.798Z,18.80
2022-10-20T22:20:02.228Z,19.20
2022-10-20T22:22:33.005Z,19.00
2022-10-20T22:25:03.537Z,18.60
2022-10-20T22:27:42.433Z,18.80
2022-10-20T22:30:13.917Z,18.50
2022-10-20T22:32:44.495Z,20.20
2022-10-20T22:35:15.582Z,20.60
2022-10-20T22:37:46.417Z,23.20
2022-10-20T22:40:17.459Z,19.60
2022-10-20T22:42:48.165Z,19.70
2022-10-20T22:45:19.047Z,19.90
2022-10-20T22:47:49.703Z,18.20
2022-10-20T22:50:20.538Z,18.00
2022-10-20T22:52:51.489Z,20.80
2022-10-20T22:55:22.108Z,21.80
2022-10-20T22:57:53.449Z,20.60
2022-10-20T23:00:24.197Z,18.70
2022-10-20T23:02:55.070Z,20.60
2022-10-20T23:05:25.843Z,19.70
2022-10-20T23:07:56.543Z,19.20
2022-10-20T23:10:27.117Z,20.80
2022-10-20T23:12:57.775Z,20.30
2022-10-20T23:15:28.578Z,21.10
2022-10-20T23:17:59.531Z,20.30
2022-10-20T23:20:30.270Z,21.00
2022-10-20T23:23:00.984Z,19.80
2022-10-20T23:25:31.908Z,21.10
2022-10-20T23:28:02.574Z,24.00
2022-10-20T23:30:33.071Z,23.40
2022-10-20T23:33:04.110Z,23.90
2022-10-20T23:35:37.502Z,25.50
2022-10-20T23:38:08.993Z,25.30
2022-10-20T23:40:39.659Z,24.00
2022-10-20T23:43:10.389Z,22.10
2022-10-20T23:45:40.975Z,23.40
2022-10-20T23:48:11.698Z,21.30
2022-10-20T23:50:42.326Z,22.10
2022-10-20T23:53:13.315Z,23.80
2022-10-20T23:55:44.176Z,25.20
2022-10-20T23:58:15.356Z,25.00
